Time;durP1;ratioP1;P1;durP2;ratioP2;P2;SDS_P1;SDS_P2;PMS_P1;PMS_P2;Temp;Humidity;BMP_temperature;BMP_pressure;BME280_temperature;BME280_humidity;BME280_pressure;Samples;Min_cycle;Max_cycle;Signal;HPM_P1;HPM_P2
2022/01/15 00:02:20;;;;;;;;;;;1.20;99.90;;;;;;5046253;28;19939;-87
2022/01/15 00:04:47;;;;;;;;;;;1.50;99.90;;;;;;5018431;28;19932;-85
2022/01/15 00:07:15;;;;;;;;;;;1.20;99.90;;;;;;5025470;28;19959;-85
2022/01/15 00:09:49;;;;;;;;;;;1.30;99.90;;;;;;5042799;28;19944;-87
2022/01/15 00:12:17;;;;;;;;;;;1.20;99.90;;;;;;5062617;28;19925;-89
2022/01/15 00:14:45;;;;;;;;;;;1.30;99.90;;;;;;5037422;28;19938;-87
2022/01/15 00:17:21;;;;;;;;;;;1.20;99.90;;;;;;5047005;28;19931;-88
2022/01/15 00:19:50;;;;;;;;;;;1.10;99.90;;;;;;5061739;28;20179;-86
2022/01/15 00:22:18;;;;;;;;;;;1.20;99.90;;;;;;5049036;28;19928;-87
2022/01/15 00:24:48;;;;;;;;;;;1.10;99.90;;;;;;5049370;28;19935;-86
2022/01/15 00:27:16;;;;;;;;;;;1.10;99.90;;;;;;5054740;28;19932;-86
2022/01/15 00:29:44;;;;;;;;;;;1.80;99.90;;;;;;5030193;28;19936;-86
2022/01/15 00:32:20;;;;;;;;;;;1.10;99.90;;;;;;5030341;28;19928;-87
2022/01/15 00:35:04;;;;;;;;;;;1.10;99.90;;;;;;5048577;28;19935;-87
2022/01/15 00:37:34;;;;;;;;;;;1.00;99.90;;;;;;5047961;28;19936;-87
2022/01/15 00:40:04;;;;;;;;;;;1.10;99.90;;;;;;5038079;28;19928;-87
2022/01/15 00:42:34;;;;;;;;;;;1.20;99.90;;;;;;5052550;28;19924;-87
2022/01/15 00:45:08;;;;;;;;;;;0.90;99.90;;;;;;5053131;28;20221;-88
2022/01/15 00:47:37;;;;;;;;;;;1.10;99.90;;;;;;5045508;28;19925;-87
2022/01/15 00:50:06;;;;;;;;;;;1.00;99.90;;;;;;5054135;28;19925;-88
2022/01/15 00:52:35;;;;;;;;;;;0.50;99.90;;;;;;5046463;28;19951;-87
2022/01/15 00:55:04;;;;;;;;;;;0.90;99.90;;;;;;5056639;28;19928;-88
2022/01/15 00:57:33;;;;;;;;;;;2.60;99.90;;;;;;5023958;28;19999;-87
2022/01/15 01:00:01;;;;;;;;;;;1.10;99.90;;;;;;5045276;28;19924;-87
2022/01/15 01:02:29;;;;;;;;;;;-0.60;99.90;;;;;;5026985;28;19943;-87
2022/01/15 01:04:57;;;;;;;;;;;0.90;99.90;;;;;;5034185;28;19924;-87
2022/01/15 01:07:26;;;;;;;;;;;1.00;99.90;;;;;;5019809;28;19925;-87
2022/01/15 01:20:50;;;;;;;;;;;0.80;99.90;;;;;;5042721;28;19929;-88
2022/01/15 01:23:18;;;;;;;;;;;0.90;99.90;;;;;;5045712;28;19935;-87
2022/01/15 01:25:58;;;;;;;;;;;0.70;99.90;;;;;;5044832;28;19929;-87
2022/01/15 01:28:34;;;;;;;;;;;0.80;99.90;;;;;;5041236;28;19932;-87
2022/01/15 01:31:20;;;;;;;;;;;1.00;99.90;;;;;;5027060;28;19932;-88
2022/01/15 01:33:53;;;;;;;;;;;1.60;99.90;;;;;;5061789;28;19924;-87
2022/01/15 01:36:36;;;;;;;;;;;0.80;99.90;;;;;;5029423;28;19924;-87
2022/01/15 01:39:10;;;;;;;;;;;0.90;99.90;;;;;;5030069;28;19924;-87
2022/01/15 01:41:42;;;;;;;;;;;1.60;99.90;;;;;;5026466;28;19932;-87
2022/01/15 01:44:16;;;;;;;;;;;0.80;99.90;;;;;;5063332;28;19924;-86
2022/01/15 01:46:51;;;;;;;;;;;0.70;99.90;;;;;;5027965;28;19936;-87
2022/01/15 01:49:19;;;;;;;;;;;0.80;99.90;;;;;;5049488;28;19920;-87
2022/01/15 01:51:47;;;;;;;;;;;0.40;99.90;;;;;;5068377;28;19928;-87
2022/01/15 01:54:18;;;;;;;;;;;0.80;99.90;;;;;;5050563;28;19929;-88
2022/01/15 01:56:48;;;;;;;;;;;0.80;99.90;;;;;;5034277;28;19995;-86
2022/01/15 01:59:23;;;;;;;;;;;0.90;99.90;;;;;;4941131;28;9999920;-87
2022/01/15 02:01:51;;;;;;;;;;;1.10;99.90;;;;;;5062976;28;20413;-87
2022/01/15 02:04:19;;;;;;;;;;;1.00;99.90;;;;;;5025394;28;19921;-86
2022/01/15 02:06:47;;;;;;;;;;;1.00;99.90;;;;;;5025212;28;19935;-87
2022/01/15 02:09:17;;;;;;;;;;;0.90;99.90;;;;;;5032636;28;19928;-86
2022/01/15 02:11:44;;;;;;;;;;;1.10;99.90;;;;;;5042323;28;20234;-87
2022/01/15 02:14:25;;;;;;;;;;;1.20;99.90;;;;;;5028037;28;19928;-87
2022/01/15 02:16:54;;;;;;;;;;;1.20;99.90;;;;;;5074784;28;19929;-88
2022/01/15 02:19:22;;;;;;;;;;;1.30;99.90;;;;;;5024790;28;19925;-88
2022/01/15 02:24:17;;;;;;;;;;;0.80;99.90;;;;;;5044180;28;20303;-87
2022/01/15 02:26:45;;;;;;;;;;;2.00;99.90;;;;;;5028160;28;19928;-88
2022/01/15 02:29:13;;;;;;;;;;;1.50;99.90;;;;;;5012169;28;19925;-87
2022/01/15 02:31:41;;;;;;;;;;;1.80;99.90;;;;;;5036663;28;19932;-86
2022/01/15 02:34:09;;;;;;;;;;;1.50;99.90;;;;;;5043067;28;19932;-87
2022/01/15 02:36:37;;;;;;;;;;;1.30;99.90;;;;;;5041698;28;19929;-88
2022/01/15 02:39:05;;;;;;;;;;;1.50;99.90;;;;;;5027519;28;19928;-87
2022/01/15 02:41:37;;;;;;;;;;;1.60;99.90;;;;;;5044083;28;19932;-88
2022/01/15 02:44:06;;;;;;;;;;;1.60;99.90;;;;;;5051531;28;20011;-88
2022/01/15 02:48:00;;;;;;;;;;;2.00;99.90;;;;;;5061303;28;20410;-88
2022/01/15 02:49:23;;;;;;;;;;;1.70;99.90;;;;;;5030538;28;19936;-87
2022/01/15 02:51:51;;;;;;;;;;;1.70;99.90;;;;;;5044223;28;19924;-88
2022/01/15 02:54:20;;;;;;;;;;;1.70;99.90;;;;;;5044410;28;19924;-87
2022/01/15 02:56:48;;;;;;;;;;;1.80;99.90;;;;;;5044790;28;20392;-87
2022/01/15 02:59:18;;;;;;;;;;;1.80;99.90;;;;;;5045244;28;19925;-88
2022/01/15 03:01:48;;;;;;;;;;;1.80;99.90;;;;;;5045136;28;20303;-87
2022/01/15 03:04:17;;;;;;;;;;;1.80;99.90;;;;;;5025827;28;19936;-88
2022/01/15 03:06:44;;;;;;;;;;;1.50;99.90;;;;;;5028130;28;19929;-87
2022/01/15 03:09:12;;;;;;;;;;;1.90;99.90;;;;;;5026054;28;19928;-88
2022/01/15 03:11:42;;;;;;;;;;;1.90;99.90;;;;;;5026617;28;19948;-88
2022/01/15 03:14:12;;;;;;;;;;;1.80;99.90;;;;;;5041945;28;19935;-88
2022/01/15 03:16:40;;;;;;;;;;;1.80;99.90;;;;;;5009273;28;19925;-87
2022/01/15 03:19:08;;;;;;;;;;;1.80;99.90;;;;;;5024706;28;19925;-87
2022/01/15 03:21:36;;;;;;;;;;;1.80;99.90;;;;;;5041490;28;19936;-88
2022/01/15 03:24:03;;;;;;;;;;;1.70;99.90;;;;;;5035531;28;19924;-87
2022/01/15 03:26:31;;;;;;;;;;;1.80;99.90;;;;;;5048403;28;19925;-88
2022/01/15 03:28:59;;;;;;;;;;;1.80;99.90;;;;;;5046999;28;19924;-88
2022/01/15 03:31:27;;;;;;;;;;;1.80;99.90;;;;;;5031675;28;19924;-88
2022/01/15 03:33:54;;;;;;;;;;;2.20;99.90;;;;;;5048545;28;19924;-88
2022/01/15 03:36:23;;;;;;;;;;;1.90;99.90;;;;;;5063855;28;19931;-88
2022/01/15 03:38:51;;;;;;;;;;;1.90;99.90;;;;;;5031545;28;19925;-88
2022/01/15 03:41:19;;;;;;;;;;;1.90;99.90;;;;;;5032151;28;19925;-88
2022/01/15 03:43:47;;;;;;;;;;;2.00;99.90;;;;;;5043696;28;19932;-88
2022/01/15 03:46:15;;;;;;;;;;;2.00;99.90;;;;;;5048829;28;20379;-88
2022/01/15 03:48:43;;;;;;;;;;;2.70;99.90;;;;;;5028510;28;19925;-88
2022/01/15 03:51:10;;;;;;;;;;;2.10;99.90;;;;;;5029033;28;19928;-88
2022/01/15 03:53:39;;;;;;;;;;;2.40;99.90;;;;;;5033046;28;20380;-88
2022/01/15 03:56:07;;;;;;;;;;;2.20;99.90;;;;;;5045071;28;19925;-88
2022/01/15 03:58:35;;;;;;;;;;;2.40;99.90;;;;;;5028025;28;19924;-88
2022/01/15 04:01:03;;;;;;;;;;;2.20;99.90;;;;;;5012157;28;19929;-88
2022/01/15 04:03:31;;;;;;;;;;;2.10;99.90;;;;;;5047771;28;19924;-87
2022/01/15 04:05:59;;;;;;;;;;;2.20;99.90;;;;;;5028878;28;19925;-88
2022/01/15 04:08:26;;;;;;;;;;;2.20;99.90;;;;;;5042523;28;19928;-88
2022/01/15 04:10:54;;;;;;;;;;;2.30;99.90;;;;;;5064725;28;19924;-88
2022/01/15 04:13:22;;;;;;;;;;;2.20;99.90;;;;;;5049779;28;19929;-88
2022/01/15 04:15:53;;;;;;;;;;;2.30;99.90;;;;;;5011240;28;19931;-87
2022/01/15 04:18:28;;;;;;;;;;;2.30;99.90;;;;;;5038303;28;19925;-87
2022/01/15 04:20:58;;;;;;;;;;;2.80;99.90;;;;;;5060884;28;20357;-88
2022/01/15 04:23:29;;;;;;;;;;;2.60;99.90;;;;;;5012090;28;19936;-88
2022/01/15 04:25:58;;;;;;;;;;;2.50;99.90;;;;;;5045052;28;19927;-87
2022/01/15 04:28:27;;;;;;;;;;;1.20;99.90;;;;;;5027405;28;19925;-88
2022/01/15 04:30:55;;;;;;;;;;;2.90;99.90;;;;;;4997598;28;19925;-89
2022/01/15 04:33:22;;;;;;;;;;;2.50;99.90;;;;;;5009281;28;19925;-89
2022/01/15 04:35:50;;;;;;;;;;;2.50;99.90;;;;;;5010289;28;19936;-88
2022/01/15 04:38:18;;;;;;;;;;;2.60;99.90;;;;;;5029386;28;19925;-88
2022/01/15 04:40:46;;;;;;;;;;;2.60;99.90;;;;;;5012705;28;19929;-89
2022/01/15 04:43:16;;;;;;;;;;;2.80;99.90;;;;;;5013659;28;20324;-88
2022/01/15 04:45:44;;;;;;;;;;;2.70;99.90;;;;;;5027776;28;19924;-88
2022/01/15 04:48:12;;;;;;;;;;;2.70;99.90;;;;;;5027177;28;19932;-88
2022/01/15 04:50:40;;;;;;;;;;;2.70;99.90;;;;;;5025242;28;19925;-89
2022/01/15 04:53:09;;;;;;;;;;;2.50;99.90;;;;;;5027560;28;19939;-88
2022/01/15 04:55:38;;;;;;;;;;;2.70;99.90;;;;;;5016514;28;19935;-88
2022/01/15 04:58:06;;;;;;;;;;;2.70;99.90;;;;;;5032166;28;20047;-88
2022/01/15 05:00:34;;;;;;;;;;;2.70;99.90;;;;;;5042267;28;19929;-88
2022/01/15 05:03:07;;;;;;;;;;;2.70;99.90;;;;;;4999222;28;19935;-89
2022/01/15 05:05:35;;;;;;;;;;;2.70;99.90;;;;;;5030639;28;19925;-89
2022/01/15 05:08:05;;;;;;;;;;;2.70;99.90;;;;;;5013176;28;19935;-88
2022/01/15 05:10:33;;;;;;;;;;;1.60;99.90;;;;;;5045541;28;20153;-89
2022/01/15 05:13:02;;;;;;;;;;;2.70;99.90;;;;;;5027455;28;19925;-88
2022/01/15 05:15:30;;;;;;;;;;;2.70;99.90;;;;;;5046266;28;19924;-88
2022/01/15 05:17:58;;;;;;;;;;;2.80;99.90;;;;;;5028428;28;19925;-89
2022/01/15 05:20:26;;;;;;;;;;;2.80;99.90;;;;;;5028644;28;19939;-88
2022/01/15 05:22:54;;;;;;;;;;;2.80;99.90;;;;;;5061054;28;19936;-88
2022/01/15 05:25:22;;;;;;;;;;;2.80;99.90;;;;;;5030550;28;19951;-88
2022/01/15 05:27:51;;;;;;;;;;;2.90;99.90;;;;;;5027298;28;19925;-88
2022/01/15 05:30:19;;;;;;;;;;;2.80;99.90;;;;;;5036610;28;19939;-88
2022/01/15 05:32:47;;;;;;;;;;;2.80;99.90;;;;;;5048186;28;19929;-88
2022/01/15 05:35:15;;;;;;;;;;;2.80;99.90;;;;;;5044668;28;19925;-88
2022/01/15 05:37:42;;;;;;;;;;;2.80;99.90;;;;;;5048247;28;19924;-89
2022/01/15 05:40:12;;;;;;;;;;;2.80;99.90;;;;;;5047897;28;19925;-88
2022/01/15 05:42:41;;;;;;;;;;;2.80;99.90;;;;;;5053979;28;19924;-87
2022/01/15 05:45:09;;;;;;;;;;;2.80;99.90;;;;;;5045025;28;19925;-88
2022/01/15 05:47:37;;;;;;;;;;;2.80;99.90;;;;;;5038003;28;20722;-88
2022/01/15 05:50:05;;;;;;;;;;;2.80;99.90;;;;;;5047633;28;19931;-89
2022/01/15 05:52:33;;;;;;;;;;;1.40;99.90;;;;;;5043327;28;19925;-88
2022/01/15 05:55:02;;;;;;;;;;;2.90;99.90;;;;;;5050604;28;19935;-89
2022/01/15 05:57:31;;;;;;;;;;;2.90;99.90;;;;;;5046960;28;20086;-88
2022/01/15 06:00:00;;;;;;;;;;;2.90;99.90;;;;;;5046159;28;20382;-87
2022/01/15 06:02:28;;;;;;;;;;;3.00;99.90;;;;;;5043592;28;19944;-88
2022/01/15 06:04:55;;;;;;;;;;;3.00;99.90;;;;;;5045904;28;19949;-88
2022/01/15 06:07:24;;;;;;;;;;;3.00;99.90;;;;;;5033741;28;19934;-88
2022/01/15 06:09:52;;;;;;;;;;;3.20;99.90;;;;;;5048730;28;20143;-87
2022/01/15 06:12:28;;;;;;;;;;;3.00;99.90;;;;;;5026508;28;19937;-89
2022/01/15 06:14:56;;;;;;;;;;;3.10;99.90;;;;;;5024550;28;20396;-88
2022/01/15 06:17:27;;;;;;;;;;;3.10;99.90;;;;;;5034830;28;19932;-88
2022/01/15 06:19:56;;;;;;;;;;;3.10;99.90;;;;;;5027052;28;19925;-89
2022/01/15 06:22:26;;;;;;;;;;;3.20;99.90;;;;;;5030392;28;19925;-89
2022/01/15 06:24:54;;;;;;;;;;;3.00;99.90;;;;;;5042135;28;19935;-88
2022/01/15 06:27:27;;;;;;;;;;;3.40;99.90;;;;;;5027208;28;19925;-87
2022/01/15 06:29:56;;;;;;;;;;;3.20;99.90;;;;;;5025440;28;19936;-88
2022/01/15 06:32:25;;;;;;;;;;;3.20;99.90;;;;;;5041558;28;20112;-89
2022/01/15 06:34:53;;;;;;;;;;;3.20;99.90;;;;;;5006102;28;19925;-88
2022/01/15 06:37:21;;;;;;;;;;;3.20;99.90;;;;;;5030086;28;19932;-88
2022/01/15 06:39:52;;;;;;;;;;;3.30;99.90;;;;;;5023771;28;20383;-88
2022/01/15 06:42:20;;;;;;;;;;;3.30;99.90;;;;;;4986133;28;19925;-88
2022/01/15 06:44:49;;;;;;;;;;;3.20;99.90;;;;;;5043192;28;19925;-88
2022/01/15 06:47:18;;;;;;;;;;;3.30;99.90;;;;;;5009456;28;19924;-88
2022/01/15 06:49:47;;;;;;;;;;;3.30;99.90;;;;;;5043554;28;19929;-88
2022/01/15 06:52:15;;;;;;;;;;;3.40;99.90;;;;;;5040510;28;19925;-88
2022/01/15 06:54:58;;;;;;;;;;;3.40;99.90;;;;;;5045578;28;19936;-89
2022/01/15 06:57:27;;;;;;;;;;;3.40;99.90;;;;;;5026001;28;19932;-87
2022/01/15 07:00:08;;;;;;;;;;;3.40;99.90;;;;;;5048313;28;19940;-88
2022/01/15 07:02:38;;;;;;;;;;;3.50;99.90;;;;;;5029647;28;19952;-88
2022/01/15 07:08:50;;;;;;;;;;;3.50;99.90;;;;;;5050164;28;19928;-88
2022/01/15 07:11:45;;;;;;;;;;;3.50;99.90;;;;;;5045208;28;19925;-88
2022/01/15 07:14:49;;;;;;;;;;;3.60;99.90;;;;;;5043935;28;19925;-89
2022/01/15 07:21:30;;;;;;;;;;;3.50;99.90;;;;;;5037062;28;19937;-88
2022/01/15 07:23:58;;;;;;;;;;;3.50;99.90;;;;;;5037600;28;19928;-88
2022/01/15 07:26:27;;;;;;;;;;;3.50;99.90;;;;;;5025559;28;19937;-88
2022/01/15 07:28:58;;;;;;;;;;;3.60;99.90;;;;;;5042494;28;20020;-89
2022/01/15 07:31:28;;;;;;;;;;;4.50;99.90;;;;;;5042714;28;19929;-88
2022/01/15 07:34:21;;;;;;;;;;;3.60;99.90;;;;;;5023681;23;19926;-80
2022/01/15 07:37:59;;;;;;;;;;;3.60;99.90;;;;;;5047305;28;19922;-78
2022/01/15 07:40:32;;;;;;;;;;;3.60;99.90;;;;;;4986607;28;19927;-78
2022/01/15 07:43:05;;;;;;;;;;;3.60;99.90;;;;;;4991014;28;19925;-79
2022/01/15 07:45:32;;;;;;;;;;;3.60;99.90;;;;;;4989885;28;19936;-79
2022/01/15 07:48:06;;;;;;;;;;;3.80;99.90;;;;;;4958437;28;19937;-80
2022/01/15 07:50:42;;;;;;;;;;;2.90;99.90;;;;;;5072897;28;19933;-78
2022/01/15 07:53:12;;;;;;;;;;;3.60;99.90;;;;;;4996767;28;19926;-78
2022/01/15 07:55:47;;;;;;;;;;;3.80;99.90;;;;;;5055952;28;19941;-79
2022/01/15 07:58:15;;;;;;;;;;;3.70;99.90;;;;;;5055058;28;19932;-79
2022/01/15 08:00:43;;;;;;;;;;;3.80;99.90;;;;;;4987071;28;19926;-81
2022/01/15 08:03:11;;;;;;;;;;;3.80;99.90;;;;;;5059854;28;19926;-80
2022/01/15 08:05:39;;;;;;;;;;;3.80;99.90;;;;;;4966882;28;19930;-80
2022/01/15 08:08:08;;;;;;;;;;;3.90;99.90;;;;;;5057740;28;19934;-80
2022/01/15 08:10:36;;;;;;;;;;;3.80;99.90;;;;;;4985973;28;19926;-82
2022/01/15 08:13:04;;;;;;;;;;;3.90;99.90;;;;;;5053938;28;19930;-79
2022/01/15 08:15:33;;;;;;;;;;;3.90;99.90;;;;;;5032784;28;19926;-79
2022/01/15 08:18:00;;;;;;;;;;;3.90;99.90;;;;;;4986614;28;19926;-79
2022/01/15 08:20:29;;;;;;;;;;;4.00;99.90;;;;;;5047358;28;19934;-80
2022/01/15 08:22:57;;;;;;;;;;;4.00;99.90;;;;;;5047130;28;19929;-81
2022/01/15 08:25:27;;;;;;;;;;;4.00;99.90;;;;;;5071643;28;20447;-83
2022/01/15 08:27:55;;;;;;;;;;;4.00;99.90;;;;;;5083381;28;19928;-79
2022/01/15 08:30:24;;;;;;;;;;;4.10;99.90;;;;;;5055731;28;20366;-78
2022/01/15 08:32:52;;;;;;;;;;;4.10;99.90;;;;;;5037362;28;19930;-82
2022/01/15 08:35:20;;;;;;;;;;;4.10;99.90;;;;;;5059611;28;19926;-80
2022/01/15 08:37:48;;;;;;;;;;;2.40;99.90;;;;;;4988681;28;19930;-79
2022/01/15 08:40:16;;;;;;;;;;;4.20;99.90;;;;;;4988696;28;19941;-80
2022/01/15 08:42:44;;;;;;;;;;;4.30;99.90;;;;;;5041408;28;19926;-79
2022/01/15 08:45:14;;;;;;;;;;;4.30;99.90;;;;;;5052997;28;19927;-80
2022/01/15 08:47:43;;;;;;;;;;;4.30;99.90;;;;;;5049746;28;20092;-79
2022/01/15 08:50:13;;;;;;;;;;;4.40;99.90;;;;;;5054575;28;19926;-79
2022/01/15 08:52:40;;;;;;;;;;;4.40;99.90;;;;;;5048262;28;20427;-79
2022/01/15 08:55:09;;;;;;;;;;;4.10;99.90;;;;;;4991009;28;19929;-78
2022/01/15 08:57:39;;;;;;;;;;;4.50;99.90;;;;;;5041939;28;19926;-79
2022/01/15 09:00:08;;;;;;;;;;;4.50;99.90;;;;;;5045969;28;19931;-79
2022/01/15 09:02:36;;;;;;;;;;;4.50;99.90;;;;;;5045682;28;19924;-79
2022/01/15 09:05:05;;;;;;;;;;;4.70;99.90;;;;;;5026397;28;19930;-79
2022/01/15 09:07:37;;;;;;;;;;;4.60;99.90;;;;;;4990392;28;19930;-82
2022/01/15 09:10:05;;;;;;;;;;;4.60;99.90;;;;;;4986501;28;20362;-79
2022/01/15 09:12:34;;;;;;;;;;;4.70;99.90;;;;;;5044881;28;19926;-78
2022/01/15 09:15:22;;;;;;;;;;;4.70;99.90;;;;;;5000652;28;19925;-80
2022/01/15 09:17:54;;;;;;;;;;;4.70;99.90;;;;;;5060797;28;19930;-79
2022/01/15 09:20:22;;;;;;;;;;;4.80;99.90;;;;;;5055719;28;19930;-81
2022/01/15 09:22:51;;;;;;;;;;;4.80;99.90;;;;;;5066386;28;19937;-83
2022/01/15 09:25:23;;;;;;;;;;;4.90;99.90;;;;;;5005318;28;19924;-80
2022/01/15 09:30:42;;;;;;;;;;;4.90;99.90;;;;;;5046760;28;19934;-82
2022/01/15 09:33:10;;;;;;;;;;;4.90;99.90;;;;;;5029846;28;20227;-80
2022/01/15 09:35:39;;;;;;;;;;;4.90;99.90;;;;;;5033919;28;19936;-80
2022/01/15 09:38:08;;;;;;;;;;;5.00;99.90;;;;;;4980317;28;19934;-78
2022/01/15 09:40:38;;;;;;;;;;;5.00;99.90;;;;;;4969502;28;19949;-80
2022/01/15 09:43:08;;;;;;;;;;;5.00;99.90;;;;;;4970942;28;19926;-79
2022/01/15 09:45:36;;;;;;;;;;;5.00;99.90;;;;;;4994637;28;19944;-79
2022/01/15 09:48:05;;;;;;;;;;;5.00;99.90;;;;;;5061664;28;19928;-80
2022/01/15 09:50:36;;;;;;;;;;;5.00;99.90;;;;;;5060560;28;20369;-81
2022/01/15 09:53:05;;;;;;;;;;;5.10;99.90;;;;;;5035147;28;19924;-79
2022/01/15 09:55:33;;;;;;;;;;;5.10;99.90;;;;;;5048044;28;19941;-79
2022/01/15 09:58:10;;;;;;;;;;;5.10;99.90;;;;;;4997628;28;19930;-79
2022/01/15 10:00:44;;;;;;;;;;;5.10;99.90;;;;;;5068233;28;19928;-80
2022/01/15 10:03:13;;;;;;;;;;;5.20;99.90;;;;;;5065026;28;20306;-80
2022/01/15 10:05:41;;;;;;;;;;;5.30;99.90;;;;;;5001528;28;19937;-80
2022/01/15 10:08:10;;;;;;;;;;;5.20;99.90;;;;;;5051309;28;20310;-79
2022/01/15 10:10:39;;;;;;;;;;;5.70;99.90;;;;;;4993129;28;19930;-79
2022/01/15 10:13:24;;;;;;;;;;;5.30;99.90;;;;;;5030890;28;19944;-79
2022/01/15 10:15:55;;;;;;;;;;;5.40;99.90;;;;;;5043896;28;19933;-83
2022/01/15 10:18:28;;;;;;;;;;;5.40;99.90;;;;;;4983836;28;19937;-79
2022/01/15 10:21:10;;;;;;;;;;;5.40;99.90;;;;;;5052549;28;20322;-80
2022/01/15 10:23:55;;;;;;;;;;;5.40;99.90;;;;;;5037053;28;19932;-79
2022/01/15 10:26:28;;;;;;;;;;;5.40;99.90;;;;;;5053668;28;19941;-79
2022/01/15 10:28:58;;;;;;;;;;;5.50;99.90;;;;;;4986261;28;19926;-79
2022/01/15 10:31:29;;;;;;;;;;;5.50;99.90;;;;;;5063373;28;19931;-79
2022/01/15 10:33:58;;;;;;;;;;;4.60;99.90;;;;;;5054010;28;20229;-83
2022/01/15 10:36:29;;;;;;;;;;;5.50;99.90;;;;;;4986573;28;19930;-79
2022/01/15 10:39:18;;;;;;;;;;;5.60;99.90;;;;;;5057470;28;19926;-81
2022/01/15 10:41:54;;;;;;;;;;;5.60;99.90;;;;;;4997752;28;20497;-78
2022/01/15 10:44:33;;;;;;;;;;;5.70;99.90;;;;;;4985625;28;19933;-80
2022/01/15 10:47:02;;;;;;;;;;;5.80;99.90;;;;;;4987042;28;19926;-81
2022/01/15 10:49:30;;;;;;;;;;;5.80;99.90;;;;;;5035634;28;19927;-80
2022/01/15 10:52:05;;;;;;;;;;;5.80;99.90;;;;;;5043578;28;19926;-80
2022/01/15 10:54:53;;;;;;;;;;;6.00;99.90;;;;;;4980375;28;19937;-80
2022/01/15 10:57:23;;;;;;;;;;;5.90;99.90;;;;;;4986143;28;19946;-81
2022/01/15 11:00:05;;;;;;;;;;;6.00;99.90;;;;;;5053358;28;19937;-82
2022/01/15 11:02:33;;;;;;;;;;;6.00;99.90;;;;;;4992127;28;20322;-79
2022/01/15 11:05:02;;;;;;;;;;;6.10;99.90;;;;;;5048800;28;20719;-79
2022/01/15 11:07:34;;;;;;;;;;;6.10;99.90;;;;;;5044572;28;19930;-79
2022/01/15 11:10:04;;;;;;;;;;;6.30;99.90;;;;;;5045851;28;19937;-79
2022/01/15 11:12:32;;;;;;;;;;;6.10;99.90;;;;;;4979204;28;19926;-80
2022/01/15 11:15:06;;;;;;;;;;;6.20;99.90;;;;;;4984791;28;19926;-78
2022/01/15 11:17:35;;;;;;;;;;;6.10;99.90;;;;;;5049521;28;19933;-81
2022/01/15 11:20:04;;;;;;;;;;;6.10;99.90;;;;;;4947316;28;19927;-79
2022/01/15 11:22:33;;;;;;;;;;;6.10;99.90;;;;;;4991790;28;20289;-83
2022/01/15 11:25:03;;;;;;;;;;;6.10;99.90;;;;;;4980462;28;20317;-81
2022/01/15 11:27:31;;;;;;;;;;;6.00;99.90;;;;;;5044353;28;19938;-79
2022/01/15 11:30:01;;;;;;;;;;;6.20;99.90;;;;;;4978699;28;19930;-79
2022/01/15 11:32:30;;;;;;;;;;;6.20;99.90;;;;;;4980571;28;20426;-80
2022/01/15 11:35:07;;;;;;;;;;;6.20;99.90;;;;;;5046139;28;19933;-79
2022/01/15 11:37:40;;;;;;;;;;;6.30;99.90;;;;;;4979472;28;19941;-82
2022/01/15 11:40:27;;;;;;;;;;;6.40;99.90;;;;;;4995593;28;20289;-79
2022/01/15 11:42:55;;;;;;;;;;;6.50;99.90;;;;;;5044824;28;19941;-80
2022/01/15 11:45:36;;;;;;;;;;;6.60;99.90;;;;;;5029193;28;20421;-82
2022/01/15 11:48:20;;;;;;;;;;;6.60;99.90;;;;;;4630756;28;10000213;-79
2022/01/15 11:51:07;;;;;;;;;;;6.60;99.90;;;;;;4975581;28;19937;-79
2022/01/15 11:53:45;;;;;;;;;;;6.70;99.90;;;;;;5045608;28;19934;-84
2022/01/15 11:56:16;;;;;;;;;;;6.70;99.90;;;;;;4984093;28;19928;-79
2022/01/15 11:59:23;;;;;;;;;;;6.70;99.90;;;;;;4982427;28;19944;-79
2022/01/15 12:01:59;;;;;;;;;;;6.80;99.90;;;;;;5029767;28;19941;-79
2022/01/15 12:04:27;;;;;;;;;;;6.80;99.90;;;;;;4979176;28;19930;-80
2022/01/15 12:07:04;;;;;;;;;;;6.80;99.90;;;;;;5027881;28;19941;-80
2022/01/15 12:09:35;;;;;;;;;;;6.80;99.90;;;;;;4981264;28;19930;-78
2022/01/15 12:12:45;;;;;;;;;;;6.70;99.90;;;;;;4975674;28;19934;-82
2022/01/15 12:15:17;;;;;;;;;;;6.70;99.90;;;;;;5045993;28;20338;-81
2022/01/15 12:17:46;;;;;;;;;;;6.70;99.90;;;;;;4984532;28;19937;-79
2022/01/15 12:20:18;;;;;;;;;;;6.70;99.90;;;;;;4962496;28;19926;-79
2022/01/15 12:22:47;;;;;;;;;;;6.80;99.90;;;;;;5062203;28;19933;-79
2022/01/15 12:25:17;;;;;;;;;;;6.70;99.90;;;;;;5060929;28;19926;-79
2022/01/15 12:27:47;;;;;;;;;;;6.70;99.90;;;;;;5050087;28;19930;-79
2022/01/15 12:30:19;;;;;;;;;;;6.70;99.90;;;;;;4977452;28;20371;-78
2022/01/15 12:32:53;;;;;;;;;;;6.80;99.90;;;;;;5028575;28;19926;-80
2022/01/15 12:35:22;;;;;;;;;;;7.00;99.90;;;;;;4979531;28;19930;-78
2022/01/15 12:38:15;;;;;;;;;;;6.80;99.90;;;;;;4982050;28;19934;-79
2022/01/15 12:40:45;;;;;;;;;;;6.80;99.90;;;;;;5038934;28;19941;-79
2022/01/15 12:43:24;;;;;;;;;;;6.70;99.90;;;;;;4978794;28;19926;-81
2022/01/15 12:45:54;;;;;;;;;;;6.70;99.90;;;;;;5029001;28;19934;-78
2022/01/15 12:48:23;;;;;;;;;;;5.40;99.90;;;;;;5045065;28;19934;-78
2022/01/15 12:50:52;;;;;;;;;;;6.60;99.90;;;;;;4991136;28;19933;-78
2022/01/15 12:53:23;;;;;;;;;;;6.60;99.90;;;;;;5058414;28;20390;-80
2022/01/15 12:55:51;;;;;;;;;;;6.60;99.90;;;;;;5044586;28;20407;-80
2022/01/15 12:58:23;;;;;;;;;;;6.60;99.90;;;;;;4975997;28;19958;-79
2022/01/15 13:00:52;;;;;;;;;;;6.60;99.90;;;;;;4977156;28;19941;-79
2022/01/15 13:03:21;;;;;;;;;;;6.60;99.90;;;;;;4983224;28;19934;-79
2022/01/15 13:05:50;;;;;;;;;;;6.60;99.90;;;;;;5049739;28;19951;-80
2022/01/15 13:08:24;;;;;;;;;;;6.60;99.90;;;;;;4976594;28;19930;-79
2022/01/15 13:10:58;;;;;;;;;;;6.40;99.90;;;;;;5044510;28;19933;-78
2022/01/15 13:13:32;;;;;;;;;;;6.50;99.90;;;;;;5028314;28;19936;-78
2022/01/15 13:16:12;;;;;;;;;;;6.40;99.90;;;;;;5045484;28;19926;-78
2022/01/15 13:18:41;;;;;;;;;;;6.40;99.90;;;;;;5055701;28;19926;-79
2022/01/15 13:21:13;;;;;;;;;;;6.30;99.90;;;;;;5022746;28;19957;-80
2022/01/15 13:23:47;;;;;;;;;;;6.30;99.90;;;;;;5040448;28;19926;-79
2022/01/15 13:26:19;;;;;;;;;;;6.20;99.90;;;;;;5042467;28;19937;-79
2022/01/15 13:28:46;;;;;;;;;;;6.20;99.90;;;;;;5020693;28;19930;-81
2022/01/15 13:31:14;;;;;;;;;;;6.20;99.90;;;;;;4979090;28;19926;-79
2022/01/15 13:33:43;;;;;;;;;;;6.10;99.90;;;;;;5041511;28;19934;-78
2022/01/15 13:36:16;;;;;;;;;;;5.80;99.90;;;;;;4975530;28;19937;-78
2022/01/15 13:38:48;;;;;;;;;;;6.10;99.90;;;;;;5041709;28;19930;-79
2022/01/15 13:41:25;;;;;;;;;;;6.10;99.90;;;;;;5043396;28;19949;-79
2022/01/15 13:43:54;;;;;;;;;;;6.10;99.90;;;;;;4990158;28;19957;-81
2022/01/15 13:46:31;;;;;;;;;;;6.20;99.90;;;;;;5043525;28;19937;-79
2022/01/15 13:49:10;;;;;;;;;;;6.10;99.90;;;;;;4638144;28;9999730;-79
2022/01/15 13:54:54;;;;;;;;;;;6.20;99.90;;;;;;5041931;28;20413;-78
2022/01/15 13:57:27;;;;;;;;;;;6.00;99.90;;;;;;5040997;28;19934;-79
2022/01/15 13:59:56;;;;;;;;;;;6.00;99.90;;;;;;5042203;28;19938;-79
2022/01/15 14:02:28;;;;;;;;;;;6.00;99.90;;;;;;4978171;28;19945;-79
2022/01/15 14:05:09;;;;;;;;;;;6.00;99.90;;;;;;5043535;28;19930;-78
2022/01/15 14:07:40;;;;;;;;;;;6.00;99.90;;;;;;5044627;28;19934;-80
2022/01/15 14:10:09;;;;;;;;;;;6.00;99.90;;;;;;5042782;28;19926;-79
2022/01/15 14:12:36;;;;;;;;;;;5.90;99.90;;;;;;5029989;28;19942;-79
2022/01/15 14:15:14;;;;;;;;;;;5.80;99.90;;;;;;5042766;28;19937;-79
2022/01/15 14:17:43;;;;;;;;;;;5.80;99.90;;;;;;5046409;28;19934;-78
2022/01/15 14:22:44;;;;;;;;;;;5.80;99.90;;;;;;4976152;28;19930;-78
2022/01/15 14:25:15;;;;;;;;;;;5.80;99.90;;;;;;4975948;28;19933;-81
2022/01/15 14:27:44;;;;;;;;;;;5.80;99.90;;;;;;5029954;28;19934;-80
2022/01/15 14:30:13;;;;;;;;;;;5.80;99.90;;;;;;5042825;28;19926;-78
2022/01/15 14:32:41;;;;;;;;;;;5.70;99.90;;;;;;4958309;28;20018;-79
2022/01/15 14:35:09;;;;;;;;;;;5.80;99.90;;;;;;4974425;28;19942;-79
2022/01/15 14:37:37;;;;;;;;;;;5.70;99.90;;;;;;5044479;28;19957;-80
2022/01/15 14:40:06;;;;;;;;;;;5.80;99.90;;;;;;4974635;28;19927;-78
2022/01/15 14:42:34;;;;;;;;;;;5.80;99.90;;;;;;4975788;28;19941;-78
2022/01/15 14:45:03;;;;;;;;;;;5.80;99.90;;;;;;4977514;28;19989;-79
2022/01/15 14:47:30;;;;;;;;;;;5.90;99.90;;;;;;5045975;28;19941;-79
2022/01/15 14:49:58;;;;;;;;;;;5.90;99.90;;;;;;4980381;28;19926;-79
2022/01/15 14:52:26;;;;;;;;;;;5.90;99.90;;;;;;5025043;28;19933;-81
2022/01/15 14:54:54;;;;;;;;;;;5.90;99.90;;;;;;4989724;28;20640;-79
2022/01/15 14:57:26;;;;;;;;;;;6.00;99.90;;;;;;4978455;28;19941;-79
2022/01/15 14:59:59;;;;;;;;;;;6.00;99.90;;;;;;5117320;23;20296;-79
2022/01/15 15:02:27;;;;;;;;;;;6.00;99.90;;;;;;5023027;28;19957;-79
2022/01/15 15:04:55;;;;;;;;;;;6.00;99.90;;;;;;5019755;28;19963;-79
2022/01/15 15:07:23;;;;;;;;;;;6.00;99.90;;;;;;4952671;28;19938;-79
2022/01/15 15:09:50;;;;;;;;;;;6.00;99.90;;;;;;5003469;28;19926;-78
2022/01/15 15:12:28;;;;;;;;;;;6.00;99.90;;;;;;5022074;28;20422;-80
2022/01/15 15:14:55;;;;;;;;;;;4.80;99.90;;;;;;5017703;28;19931;-81
2022/01/15 15:17:23;;;;;;;;;;;5.60;99.90;;;;;;5020457;28;19971;-80
2022/01/15 15:19:51;;;;;;;;;;;6.00;99.90;;;;;;5028718;28;19931;-80
2022/01/15 15:22:23;;;;;;;;;;;6.00;99.90;;;;;;5009154;28;19938;-78